Time;durP1;ratioP1;P1;durP2;ratioP2;P2;SDS_P1;SDS_P2;PMS_P1;PMS_P2;Temp;Humidity;BMP_temperature;BMP_pressure;BME280_temperature;BME280_humidity;BME280_pressure;Samples;Min_cycle;Max_cycle;Signal;HPM_P1;HPM_P2
2022/06/03 00:01:51;;;;;;;6.82;4.68;;;;;;;;;;5082195;28;20032;-67
2022/06/03 00:04:41;;;;;;;6.53;4.63;;;;;;;;;;5082133;28;20418;-67
2022/06/03 00:07:16;;;;;;;5.70;4.65;;;;;;;;;;5083177;28;20051;-67
2022/06/03 00:10:12;;;;;;;5.32;4.38;;;;;;;;;;5082443;28;20042;-67
2022/06/03 00:13:16;;;;;;;5.32;4.18;;;;;;;;;;5078362;28;20035;-66
2022/06/03 00:16:06;;;;;;;6.90;5.10;;;;;;;;;;5082659;28;20039;-67
2022/06/03 00:18:56;;;;;;;8.65;4.60;;;;;;;;;;5082803;28;21325;-65
2022/06/03 00:21:53;;;;;;;5.50;4.78;;;;;;;;;;5081536;28;20039;-65
2022/06/03 00:24:46;;;;;;;5.65;4.63;;;;;;;;;;5082042;28;20101;-66
2022/06/03 00:27:49;;;;;;;4.43;4.00;;;;;;;;;;5080027;28;20056;-65
2022/06/03 00:30:37;;;;;;;6.72;4.57;;;;;;;;;;5064508;28;20052;-67
2022/06/03 00:33:10;;;;;;;9.50;5.20;;;;;;;;;;5055001;28;20059;-66
2022/06/03 00:36:06;;;;;;;7.15;4.50;;;;;;;;;;5081305;28;20036;-66
2022/06/03 00:39:03;;;;;;;7.72;5.05;;;;;;;;;;5030822;28;20086;-67
2022/06/03 00:41:54;;;;;;;7.20;4.90;;;;;;;;;;5063730;28;20032;-67
2022/06/03 00:44:44;;;;;;;5.60;5.03;;;;;;;;;;5063594;28;20532;-68
2022/06/03 00:47:37;;;;;;;7.32;5.22;;;;;;;;;;5080976;28;20036;-66
2022/06/03 00:50:32;;;;;;;7.93;5.20;;;;;;;;;;5081837;28;20110;-69
2022/06/03 00:53:13;;;;;;;6.70;5.35;;;;;;;;;;5081528;28;20515;-69
2022/06/03 00:55:41;;;;;;;7.07;5.57;;;;;;;;;;5081760;28;20043;-68
2022/06/03 00:58:13;;;;;;;7.50;5.18;;;;;;;;;;5080808;28;20036;-68
2022/06/03 01:01:16;;;;;;;9.35;5.53;;;;;;;;;;5080912;28;20031;-68
2022/06/03 01:04:16;;;;;;;6.35;5.30;;;;;;;;;;5079980;28;20036;-68
2022/06/03 01:07:17;;;;;;;9.30;5.43;;;;;;;;;;5081924;28;20401;-67
2022/06/03 01:10:07;;;;;;;11.18;5.85;;;;;;;;;;5007660;28;20052;-67
2022/06/03 01:12:46;;;;;;;7.20;4.80;;;;;;;;;;5062814;28;20097;-68
2022/06/03 01:15:36;;;;;;;10.30;5.15;;;;;;;;;;5081488;28;20089;-68
2022/06/03 01:18:07;;;;;;;8.65;5.05;;;;;;;;;;5081226;28;20036;-69
2022/06/03 01:21:01;;;;;;;9.38;5.78;;;;;;;;;;5080592;28;20040;-67
2022/06/03 01:23:51;;;;;;;10.63;5.43;;;;;;;;;;5080782;28;20122;-67
2022/06/03 01:26:38;;;;;;;5.78;5.20;;;;;;;;;;5081248;28;20039;-67
2022/06/03 01:29:24;;;;;;;6.68;5.40;;;;;;;;;;5081193;28;20097;-68
2022/06/03 01:32:11;;;;;;;12.75;6.05;;;;;;;;;;5079497;28;20910;-68
2022/06/03 01:34:43;;;;;;;6.88;5.60;;;;;;;;;;5081310;28;20036;-68
2022/06/03 01:37:13;;;;;;;7.47;5.68;;;;;;;;;;5081318;28;20040;-68
2022/06/03 01:39:58;;;;;;;5.50;5.00;;;;;;;;;;5080875;28;20118;-67
2022/06/03 01:42:32;;;;;;;10.25;5.22;;;;;;;;;;5079486;28;20036;-68
2022/06/03 01:45:14;;;;;;;6.00;5.50;;;;;;;;;;5062879;28;20488;-67
2022/06/03 01:47:59;;;;;;;7.65;5.93;;;;;;;;;;5080889;28;20081;-67
2022/06/03 01:50:59;;;;;;;6.65;5.95;;;;;;;;;;5081572;28;20040;-68
2022/06/03 01:53:51;;;;;;;6.32;5.72;;;;;;;;;;5079201;28;20497;-68
2022/06/03 01:56:32;;;;;;;;;;;;;;;;;;5081279;28;20060;-67
2022/06/03 01:59:19;;;;;;;6.95;5.43;;;;;;;;;;5080818;28;19916;-68
2022/06/03 02:02:04;;;;;;;8.00;5.85;;;;;;;;;;5075726;28;20096;-67
2022/06/03 02:04:54;;;;;;;8.30;5.88;;;;;;;;;;5080295;28;20040;-67
2022/06/03 02:07:37;;;;;;;6.93;6.03;;;;;;;;;;5081244;28;20126;-67
2022/06/03 02:10:32;;;;;;;7.47;5.78;;;;;;;;;;5079409;28;21087;-68
2022/06/03 02:13:34;;;;;;;10.23;6.40;;;;;;;;;;5035023;28;20169;-67
2022/06/03 02:16:12;;;;;;;10.38;6.45;;;;;;;;;;5083011;28;20071;-67
2022/06/03 02:19:01;;;;;;;8.32;6.75;;;;;;;;;;5064967;28;20065;-68
2022/06/03 02:21:37;;;;;;;12.20;7.97;;;;;;;;;;5083102;28;20122;-68
2022/06/03 02:24:40;;;;;;;9.13;6.60;;;;;;;;;;5084514;28;20039;-67
2022/06/03 02:27:43;;;;;;;8.32;6.97;;;;;;;;;;5084643;28;20040;-68
2022/06/03 02:30:42;;;;;;;12.25;7.35;;;;;;;;;;5083962;28;20038;-66
2022/06/03 02:33:47;;;;;;;7.50;6.80;;;;;;;;;;5084059;28;20047;-69
2022/06/03 02:36:39;;;;;;;7.25;6.22;;;;;;;;;;5084504;28;20040;-68
2022/06/03 02:39:16;;;;;;;8.88;6.55;;;;;;;;;;5084554;28;20622;-68
2022/06/03 02:42:09;;;;;;;9.88;7.18;;;;;;;;;;5082755;28;20040;-67
2022/06/03 02:45:04;;;;;;;10.73;6.47;;;;;;;;;;5066019;28;20055;-67
2022/06/03 02:47:50;;;;;;;8.15;6.13;;;;;;;;;;5084484;28;20044;-68
2022/06/03 02:51:08;;;;;;;8.50;6.43;;;;;;;;;;5084779;28;20127;-67
2022/06/03 02:54:18;;;;;;;10.48;6.28;;;;;;;;;;5076680;28;20132;-68
2022/06/03 02:56:53;;;;;;;10.98;6.13;;;;;;;;;;5084104;28;20035;-67
2022/06/03 02:59:46;;;;;;;7.10;6.22;;;;;;;;;;5084402;28;20032;-67
2022/06/03 03:02:35;;;;;;;8.75;6.28;;;;;;;;;;5081466;28;20154;-68
2022/06/03 03:05:22;;;;;;;11.68;6.47;;;;;;;;;;5083343;28;20122;-68
2022/06/03 03:08:06;;;;;;;6.47;5.88;;;;;;;;;;5083570;28;20067;-67
2022/06/03 03:11:08;;;;;;;12.95;5.68;;;;;;;;;;5084130;28;20059;-67
2022/06/03 03:14:05;;;;;;;7.57;6.70;;;;;;;;;;5083220;28;20032;-66
2022/06/03 03:16:46;;;;;;;7.65;6.50;;;;;;;;;;5083363;28;20044;-68
2022/06/03 03:19:20;;;;;;;7.22;6.55;;;;;;;;;;5083509;28;20036;-66
2022/06/03 03:22:11;;;;;;;7.80;6.90;;;;;;;;;;5082613;28;20043;-68
2022/06/03 03:24:54;;;;;;;13.80;7.30;;;;;;;;;;5048921;28;20392;-67
2022/06/03 03:27:43;;;;;;;8.82;6.97;;;;;;;;;;5082746;28;20530;-69
2022/06/03 03:30:21;;;;;;;9.40;7.75;;;;;;;;;;5083323;28;20404;-68
2022/06/03 03:33:11;;;;;;;9.13;7.32;;;;;;;;;;5083263;28;20040;-67
2022/06/03 03:36:00;;;;;;;9.02;7.13;;;;;;;;;;5083311;28;20105;-68
2022/06/03 03:39:00;;;;;;;8.45;6.60;;;;;;;;;;5082355;28;20040;-67
2022/06/03 03:41:43;;;;;;;11.15;7.88;;;;;;;;;;5083220;28;20036;-68
2022/06/03 03:44:42;;;;;;;8.95;8.05;;;;;;;;;;5083769;28;20066;-68
2022/06/03 03:47:38;;;;;;;9.25;6.40;;;;;;;;;;5080307;28;20517;-68
2022/06/03 03:50:09;;;;;;;16.92;7.32;;;;;;;;;;5082831;28;20043;-68
2022/06/03 03:52:37;;;;;;;8.23;6.70;;;;;;;;;;5082748;28;20408;-69
2022/06/03 03:55:15;;;;;;;9.13;6.72;;;;;;;;;;5080319;28;20036;-68
2022/06/03 03:58:08;;;;;;;9.07;6.97;;;;;;;;;;5081540;28;20281;-67
2022/06/03 04:00:58;;;;;;;9.13;6.43;;;;;;;;;;5079084;28;20046;-67
2022/06/03 04:03:48;;;;;;;9.35;6.40;;;;;;;;;;5081782;28;20043;-68
2022/06/03 04:06:46;;;;;;;7.80;6.65;;;;;;;;;;5082126;28;21050;-68
2022/06/03 04:09:36;;;;;;;10.85;6.05;;;;;;;;;;5078255;28;20052;-67
2022/06/03 04:12:38;;;;;;;8.40;6.63;;;;;;;;;;5081662;28;20043;-68
2022/06/03 04:15:39;;;;;;;8.65;6.38;;;;;;;;;;5082412;28;20070;-67
2022/06/03 04:18:16;;;;;;;8.25;6.30;;;;;;;;;;5082481;28;20040;-67
2022/06/03 04:21:29;;;;;;;6.32;5.72;;;;;;;;;;5081204;28;20036;-68
2022/06/03 04:24:28;;;;;;;6.60;5.97;;;;;;;;;;5051938;28;20060;-68
2022/06/03 04:27:19;;;;;;;7.50;5.82;;;;;;;;;;5082320;28;20035;-67
2022/06/03 04:30:04;;;;;;;9.98;5.85;;;;;;;;;;5082075;28;20032;-67
2022/06/03 04:33:03;;;;;;;7.90;6.65;;;;;;;;;;5080994;28;20038;-69
2022/06/03 04:36:02;;;;;;;6.90;6.25;;;;;;;;;;5081966;28;20446;-69
2022/06/03 04:38:43;;;;;;;7.43;6.50;;;;;;;;;;5082497;28;20044;-69
2022/06/03 04:41:41;;;;;;;8.88;6.18;;;;;;;;;;5082150;28;20081;-68
2022/06/03 04:44:36;;;;;;;6.03;5.43;;;;;;;;;;5076266;28;20031;-70
2022/06/03 04:47:39;;;;;;;8.82;5.68;;;;;;;;;;5061258;28;20044;-68
2022/06/03 04:50:13;;;;;;;5.90;5.30;;;;;;;;;;5081486;28;20499;-69
2022/06/03 04:52:41;;;;;;;7.80;5.25;;;;;;;;;;5079993;28;20043;-70
2022/06/03 04:55:13;;;;;;;6.68;4.95;;;;;;;;;;5080636;28;20031;-70
2022/06/03 04:58:00;;;;;;;8.77;5.32;;;;;;;;;;5080596;28;20039;-69
2022/06/03 05:00:52;;;;;;;5.35;4.85;;;;;;;;;;5080587;28;20039;-71
2022/06/03 05:03:34;;;;;;;4.45;3.70;;;;;;;;;;5080364;28;20048;-70
2022/06/03 05:06:11;;;;;;;5.43;4.00;;;;;;;;;;5080477;28;20365;-71
2022/06/03 05:08:55;;;;;;;4.10;3.60;;;;;;;;;;5081347;28;20495;-69
2022/06/03 05:11:48;;;;;;;3.90;3.50;;;;;;;;;;5072271;28;20943;-70
2022/06/03 05:14:28;;;;;;;3.97;3.58;;;;;;;;;;5051976;28;20521;-71
2022/06/03 05:17:03;;;;;;;5.13;3.60;;;;;;;;;;5076827;28;20121;-68
2022/06/03 05:19:49;;;;;;;10.73;3.63;;;;;;;;;;5077986;28;20035;-71
2022/06/03 05:22:40;;;;;;;4.20;3.80;;;;;;;;;;5077181;28;20040;-69
2022/06/03 05:25:37;;;;;;;5.53;3.47;;;;;;;;;;5074357;28;20054;-70
2022/06/03 05:28:26;;;;;;;6.65;4.00;;;;;;;;;;5078609;28;20064;-68
2022/06/03 05:31:25;;;;;;;5.38;4.32;;;;;;;;;;5079849;28;20044;-67
2022/06/03 05:34:18;;;;;;;8.43;4.40;;;;;;;;;;5079546;28;20028;-69
2022/06/03 05:37:07;;;;;;;4.55;3.90;;;;;;;;;;5080024;28;20450;-71
2022/06/03 05:40:10;;;;;;;4.70;3.78;;;;;;;;;;5080105;28;20089;-70
2022/06/03 05:42:57;;;;;;;5.68;3.50;;;;;;;;;;5078385;28;20940;-71
2022/06/03 05:45:51;;;;;;;8.63;3.97;;;;;;;;;;5079276;28;20843;-69
2022/06/03 05:48:27;;;;;;;5.95;3.30;;;;;;;;;;5078760;28;20047;-72
2022/06/03 05:50:58;;;;;;;4.40;3.50;;;;;;;;;;5079136;28;20040;-72
2022/06/03 05:54:01;;;;;;;3.72;3.40;;;;;;;;;;5079292;28;20109;-71
2022/06/03 05:56:36;;;;;;;4.55;3.63;;;;;;;;;;5048414;28;20499;-72
2022/06/03 05:59:21;;;;;;;3.88;3.33;;;;;;;;;;5079224;28;20032;-69
2022/06/03 06:02:31;;;;;;;6.03;3.17;;;;;;;;;;5079009;28;20074;-70
2022/06/03 06:05:03;;;;;;;5.25;2.95;;;;;;;;;;5024091;28;20067;-71
2022/06/03 06:07:42;;;;;;;4.75;3.28;;;;;;;;;;5078586;28;20443;-70
2022/06/03 06:10:28;;;;;;;5.32;2.80;;;;;;;;;;5077753;28;20036;-70
2022/06/03 06:13:11;;;;;;;6.22;3.13;;;;;;;;;;5078851;28;20036;-70
2022/06/03 06:16:09;;;;;;;7.20;2.78;;;;;;;;;;5078421;28;20047;-71
2022/06/03 06:19:04;;;;;;;5.72;3.22;;;;;;;;;;5058007;28;20063;-68
2022/06/03 06:21:58;;;;;;;3.90;3.03;;;;;;;;;;5078260;28;20058;-69
2022/06/03 06:24:30;;;;;;;4.20;3.17;;;;;;;;;;5070666;28;20567;-69
2022/06/03 06:27:33;;;;;;;6.63;3.38;;;;;;;;;;5078845;28;20059;-69
2022/06/03 06:30:32;;;;;;;3.55;3.20;;;;;;;;;;5077557;28;20048;-69
2022/06/03 06:33:36;;;;;;;5.63;2.40;;;;;;;;;;5058130;28;20062;-70
2022/06/03 06:36:29;;;;;;;2.95;2.65;;;;;;;;;;5076211;28;20055;-69
2022/06/03 06:39:27;;;;;;;3.15;2.60;;;;;;;;;;5077618;28;20556;-70
2022/06/03 06:42:11;;;;;;;5.60;2.78;;;;;;;;;;5077533;28;20138;-69
2022/06/03 06:44:50;;;;;;;2.60;2.40;;;;;;;;;;5076836;28;20060;-68
2022/06/03 06:47:20;;;;;;;4.07;2.40;;;;;;;;;;5077710;28;20068;-69
2022/06/03 06:49:49;;;;;;;2.63;2.20;;;;;;;;;;5077790;28;20032;-69
2022/06/03 06:52:45;;;;;;;5.70;2.50;;;;;;;;;;5077958;28;20043;-68
2022/06/03 06:55:22;;;;;;;7.57;2.50;;;;;;;;;;5076981;28;20131;-69
2022/06/03 06:57:51;;;;;;;3.85;2.55;;;;;;;;;;5077454;28;20495;-69
2022/06/03 07:00:24;;;;;;;3.40;2.50;;;;;;;;;;5081250;28;20078;-70
2022/06/03 07:03:11;;;;;;;2.15;2.05;;;;;;;;;;5081833;28;20126;-69
2022/06/03 07:05:37;;;;;;;2.47;2.10;;;;;;;;;;5080025;28;20147;-70
2022/06/03 07:08:17;;;;;;;2.72;2.00;;;;;;;;;;5081816;28;20142;-69
2022/06/03 07:10:55;;;;;;;3.85;2.08;;;;;;;;;;5081035;28;20028;-71
2022/06/03 07:13:42;;;;;;;2.03;1.65;;;;;;;;;;5081112;28;20032;-70
2022/06/03 07:19:48;;;;;;;2.20;1.60;;;;;;;;;;5082053;28;20127;-70
2022/06/03 07:22:22;;;;;;;2.20;2.00;;;;;;;;;;5080475;28;20040;-71
2022/06/03 07:25:07;;;;;;;1.67;1.58;;;;;;;;;;5077763;28;20036;-70
2022/06/03 07:28:01;;;;;;;2.90;1.80;;;;;;;;;;5080904;28;20121;-70
2022/06/03 07:30:53;;;;;;;2.10;1.90;;;;;;;;;;5081040;28;20063;-71
2022/06/03 07:33:31;;;;;;;4.60;1.85;;;;;;;;;;5079024;28;20047;-71
2022/06/03 07:36:26;;;;;;;3.97;1.80;;;;;;;;;;5061772;28;20036;-72
2022/06/03 07:38:56;;;;;;;5.70;1.90;;;;;;;;;;5062429;28;20504;-71
2022/06/03 07:41:52;;;;;;;2.45;1.80;;;;;;;;;;5079962;28;20048;-71
2022/06/03 07:44:25;;;;;;;6.13;1.90;;;;;;;;;;5081943;28;20135;-69
2022/06/03 07:47:02;;;;;;;3.65;1.88;;;;;;;;;;5082798;28;20518;-69
2022/06/03 07:49:34;;;;;;;3.75;1.90;;;;;;;;;;5081675;28;20507;-70
2022/06/03 07:52:25;;;;;;;2.03;1.77;;;;;;;;;;5078829;28;20032;-68
2022/06/03 07:54:57;;;;;;;2.25;2.00;;;;;;;;;;5079072;28;20055;-68
2022/06/03 07:57:26;;;;;;;2.55;1.77;;;;;;;;;;5081412;28;20032;-69
2022/06/03 07:59:58;;;;;;;2.60;1.77;;;;;;;;;;5082296;28;20043;-70
2022/06/03 08:02:23;;;;;;;4.13;1.80;;;;;;;;;;5081719;28;20571;-69
2022/06/03 08:05:03;;;;;;;2.50;1.75;;;;;;;;;;5082046;28;20044;-69
2022/06/03 08:13:05;;;;;;;4.00;2.00;;;;;;;;;;5079863;28;20036;-69
2022/06/03 08:15:35;;;;;;;1.80;1.70;;;;;;;;;;5081910;28;20384;-71
2022/06/03 08:18:05;;;;;;;2.95;2.30;;;;;;;;;;5082623;28;20043;-71
2022/06/03 08:20:40;;;;;;;4.90;2.22;;;;;;;;;;5082419;28;20032;-70
2022/06/03 08:23:06;;;;;;;2.50;2.10;;;;;;;;;;5081296;28;20048;-70
2022/06/03 08:25:40;;;;;;;2.38;2.20;;;;;;;;;;5081298;28;20047;-70
2022/06/03 08:28:10;;;;;;;3.42;2.40;;;;;;;;;;5082352;28;20059;-70
2022/06/03 08:30:39;;;;;;;4.80;2.40;;;;;;;;;;5082203;28;20039;-70
2022/06/03 08:33:08;;;;;;;2.45;2.20;;;;;;;;;;5081958;28;20550;-71
2022/06/03 08:35:43;;;;;;;3.67;2.15;;;;;;;;;;5081108;28;20051;-70
2022/06/03 08:38:23;;;;;;;2.13;1.90;;;;;;;;;;5082464;28;20072;-70
2022/06/03 08:41:07;;;;;;;2.40;2.00;;;;;;;;;;5081935;28;20473;-68
2022/06/03 08:44:10;;;;;;;2.72;2.30;;;;;;;;;;5082026;28;20471;-69
2022/06/03 08:46:53;;;;;;;4.85;2.03;;;;;;;;;;5081369;28;20115;-70
2022/06/03 08:49:21;;;;;;;4.65;1.98;;;;;;;;;;5081961;28;20143;-68
2022/06/03 08:52:05;;;;;;;2.95;2.10;;;;;;;;;;5082244;28;20400;-68
2022/06/03 08:54:44;;;;;;;3.30;2.08;;;;;;;;;;5081788;28;20435;-68
2022/06/03 08:57:22;;;;;;;2.28;2.08;;;;;;;;;;5079969;28;20111;-69
2022/06/03 09:00:02;;;;;;;2.63;2.10;;;;;;;;;;5081470;28;20036;-68
2022/06/03 09:02:42;;;;;;;2.45;1.90;;;;;;;;;;5062946;28;20044;-70
2022/06/03 09:05:15;;;;;;;2.15;1.95;;;;;;;;;;5056703;28;20062;-68
2022/06/03 09:08:09;;;;;;;3.53;1.77;;;;;;;;;;5080270;28;20047;-68
2022/06/03 09:11:00;;;;;;;1.70;1.60;;;;;;;;;;5034202;28;21042;-69
2022/06/03 09:13:33;;;;;;;2.55;1.90;;;;;;;;;;5081275;28;20591;-69
2022/06/03 09:16:00;;;;;;;2.75;2.10;;;;;;;;;;5081516;28;20036;-69
2022/06/03 09:18:34;;;;;;;1.98;1.88;;;;;;;;;;5079716;28;20114;-68
2022/06/03 09:21:11;;;;;;;2.45;1.98;;;;;;;;;;5080884;28;20044;-69
2022/06/03 09:23:40;;;;;;;3.35;2.00;;;;;;;;;;5080739;28;20054;-69
2022/06/03 09:26:19;;;;;;;3.90;1.88;;;;;;;;;;5081304;28;20140;-68
2022/06/03 09:28:46;;;;;;;5.15;2.20;;;;;;;;;;5079741;28;20136;-69
2022/06/03 09:31:13;;;;;;;4.18;2.13;;;;;;;;;;5080410;28;20044;-69
2022/06/03 09:33:41;;;;;;;7.07;2.10;;;;;;;;;;5080686;28;20036;-68
2022/06/03 09:36:13;;;;;;;1.75;1.65;;;;;;;;;;5080910;28;20036;-68
2022/06/03 09:38:43;;;;;;;1.98;1.73;;;;;;;;;;5081113;28;20388;-68
2022/06/03 09:41:11;;;;;;;2.33;2.15;;;;;;;;;;5079598;28;20048;-69
2022/06/03 09:43:40;;;;;;;3.05;2.03;;;;;;;;;;5080269;28;20042;-68
2022/06/03 09:46:11;;;;;;;3.38;2.10;;;;;;;;;;5080694;28;20085;-69
2022/06/03 09:48:37;;;;;;;2.78;2.50;;;;;;;;;;5081116;28;20044;-69
2022/06/03 09:51:16;;;;;;;3.13;2.60;;;;;;;;;;5061337;28;20571;-69
2022/06/03 09:53:43;;;;;;;1.98;1.88;;;;;;;;;;5080001;28;20028;-70
2022/06/03 09:56:30;;;;;;;2.65;1.80;;;;;;;;;;5077418;28;20032;-69
2022/06/03 09:59:00;;;;;;;3.85;2.00;;;;;;;;;;5080777;28;20051;-69
2022/06/03 10:01:27;;;;;;;5.80;2.25;;;;;;;;;;5060976;28;20052;-68
2022/06/03 10:03:57;;;;;;;3.83;2.30;;;;;;;;;;5080013;28;20050;-69
2022/06/03 10:14:39;;;;;;;3.00;2.00;;;;;;;;;;5080524;28;20055;-70
2022/06/03 10:17:07;;;;;;;2.40;2.20;;;;;;;;;;5080769;28;20408;-70
2022/06/03 10:19:32;;;;;;;7.70;2.08;;;;;;;;;;5080576;28;20390;-69
2022/06/03 10:21:58;;;;;;;3.75;2.35;;;;;;;;;;5080442;28;20089;-67
2022/06/03 10:24:31;;;;;;;4.18;2.30;;;;;;;;;;5079079;28;20039;-70
2022/06/03 10:27:03;;;;;;;3.50;2.20;;;;;;;;;;5080043;28;20412;-71
2022/06/03 10:29:30;;;;;;;3.55;2.10;;;;;;;;;;5075712;28;20478;-72
2022/06/03 10:32:01;;;;;;;5.22;2.00;;;;;;;;;;5078884;28;20405;-70
2022/06/03 10:34:32;;;;;;;4.25;2.05;;;;;;;;;;5080543;28;21635;-70
2022/06/03 10:36:58;;;;;;;;;;;;;;;;;;5082444;28;20039;-69
2022/06/03 10:39:30;;;;;;;3.03;2.75;;;;;;;;;;5082884;28;19923;-71
2022/06/03 10:41:58;;;;;;;3.58;2.70;;;;;;;;;;5082406;28;21136;-69
2022/06/03 10:44:36;;;;;;;2.50;2.30;;;;;;;;;;5079731;28;20113;-69
2022/06/03 10:47:31;;;;;;;3.95;2.25;;;;;;;;;;5080871;28;20036;-69
2022/06/03 10:49:59;;;;;;;2.83;1.98;;;;;;;;;;5080784;28;20126;-67
2022/06/03 11:01:17;;;;;;;5.15;2.00;;;;;;;;;;5081709;28;20039;-70
2022/06/03 11:03:48;;;;;;;3.55;1.90;;;;;;;;;;5082312;28;20540;-70
2022/06/03 11:06:17;;;;;;;1.90;1.80;;;;;;;;;;5082084;28;20093;-69
2022/06/03 11:08:50;;;;;;;2.20;1.85;;;;;;;;;;5063882;28;20044;-68
2022/06/03 11:11:32;;;;;;;4.88;1.95;;;;;;;;;;5082840;28;20035;-70
2022/06/03 11:13:58;;;;;;;1.92;1.80;;;;;;;;;;5081637;28;20089;-71
2022/06/03 11:16:26;;;;;;;2.22;2.03;;;;;;;;;;5081888;28;20031;-70
2022/06/03 11:18:52;;;;;;;5.55;2.13;;;;;;;;;;5081001;28;20047;-71
2022/06/03 11:21:20;;;;;;;3.35;2.13;;;;;;;;;;5082423;28;20541;-70
2022/06/03 11:23:46;;;;;;;3.05;1.95;;;;;;;;;;5078943;28;20027;-70
2022/06/03 11:26:12;;;;;;;5.28;1.75;;;;;;;;;;5079973;28;20089;-68
2022/06/03 11:28:51;;;;;;;2.20;1.80;;;;;;;;;;5062496;28;20046;-67
2022/06/03 11:31:32;;;;;;;2.10;1.92;;;;;;;;;;5081130;28;20060;-69
2022/06/03 11:34:19;;;;;;;3.72;1.80;;;;;;;;;;5082506;28;20035;-69
2022/06/03 11:36:56;;;;;;;2.05;1.77;;;;;;;;;;5080625;28;20040;-70
2022/06/03 11:39:44;;;;;;;3.30;1.55;;;;;;;;;;5081671;28;20035;-69
2022/06/03 11:42:16;;;;;;;3.17;1.60;;;;;;;;;;5080562;28;20040;-69
2022/06/03 11:44:48;;;;;;;1.77;1.67;;;;;;;;;;5080600;28;20147;-68
2022/06/03 11:47:19;;;;;;;4.38;1.60;;;;;;;;;;5081217;28;20458;-67
2022/06/03 11:49:45;;;;;;;2.25;1.73;;;;;;;;;;5081061;28;20495;-70
2022/06/03 11:52:10;;;;;;;2.70;1.42;;;;;;;;;;5080135;28;20024;-69
2022/06/03 11:54:37;;;;;;;5.05;1.90;;;;;;;;;;5066639;28;20036;-70
2022/06/03 11:57:03;;;;;;;1.88;1.50;;;;;;;;;;5081251;28;20044;-69
2022/06/03 11:59:57;;;;;;;3.30;1.73;;;;;;;;;;5081344;28;20032;-69
2022/06/03 12:02:32;;;;;;;1.80;1.63;;;;;;;;;;5080326;28;20625;-69
2022/06/03 12:05:09;;;;;;;5.38;1.90;;;;;;;;;;5063356;28;20040;-69
2022/06/03 12:07:47;;;;;;;2.03;1.83;;;;;;;;;;5081563;28;20048;-68
2022/06/03 12:10:23;;;;;;;3.92;1.80;;;;;;;;;;5080680;28;20047;-70
2022/06/03 12:13:22;;;;;;;3.35;1.58;;;;;;;;;;5080781;28;20028;-68
2022/06/03 12:15:53;;;;;;;2.08;1.95;;;;;;;;;;5081072;28;20738;-70
2022/06/03 12:18:37;;;;;;;3.75;1.92;;;;;;;;;;5081129;28;20047;-70
2022/06/03 12:21:12;;;;;;;3.03;1.98;;;;;;;;;;5079313;28;20109;-69
2022/06/03 12:23:38;;;;;;;4.57;1.80;;;;;;;;;;5081167;28;20044;-69
2022/06/03 12:26:31;;;;;;;2.10;1.85;;;;;;;;;;5079544;28;20032;-69
2022/06/03 12:29:19;;;;;;;2.58;2.15;;;;;;;;;;5080929;28;20135;-70
2022/06/03 12:31:46;;;;;;;2.00;1.90;;;;;;;;;;5080398;28;20404;-70
2022/06/03 12:34:29;;;;;;;2.30;2.10;;;;;;;;;;5080338;28;20035;-68
2022/06/03 12:37:20;;;;;;;3.25;2.22;;;;;;;;;;5028329;28;20040;-69
2022/06/03 12:39:57;;;;;;;3.10;2.38;;;;;;;;;;5080684;28;20048;-69
2022/06/03 12:42:29;;;;;;;5.60;2.10;;;;;;;;;;5079765;28;20416;-68
2022/06/03 12:44:57;;;;;;;2.28;1.90;;;;;;;;;;5080825;28;20497;-69
2022/06/03 12:47:41;;;;;;;2.72;2.10;;;;;;;;;;5079455;28;20032;-69
2022/06/03 12:50:06;;;;;;;5.25;1.98;;;;;;;;;;5079632;28;20040;-69
2022/06/03 12:52:33;;;;;;;6.25;1.98;;;;;;;;;;5079012;28;20188;-70
2022/06/03 12:55:23;;;;;;;1.80;1.70;;;;;;;;;;5061609;28;20031;-70
2022/06/03 12:57:56;;;;;;;2.45;2.05;;;;;;;;;;5079254;28;20036;-70
2022/06/03 13:00:21;;;;;;;2.65;2.28;;;;;;;;;;5080044;28;20219;-69
2022/06/03 13:02:51;;;;;;;5.57;2.00;;;;;;;;;;5078418;28;20055;-69
2022/06/03 13:05:48;;;;;;;2.83;2.10;;;;;;;;;;5077425;28;20040;-70
2022/06/03 13:08:28;;;;;;;3.55;2.13;;;;;;;;;;5057362;28;20166;-68
2022/06/03 13:11:06;;;;;;;6.87;2.20;;;;;;;;;;5079359;28;20074;-70
2022/06/03 13:13:34;;;;;;;6.20;2.10;;;;;;;;;;5079121;28;20277;-70
2022/06/03 13:16:37;;;;;;;3.80;2.70;;;;;;;;;;5081385;28;20032;-69
2022/06/03 13:19:23;;;;;;;4.38;2.15;;;;;;;;;;5081401;28;20058;-69
2022/06/03 13:22:07;;;;;;;3.78;2.40;;;;;;;;;;5063645;28;20061;-68
2022/06/03 13:24:38;;;;;;;5.10;2.38;;;;;;;;;;5080138;28;20036;-69
2022/06/03 13:27:24;;;;;;;2.72;2.38;;;;;;;;;;5080082;28;20051;-69
2022/06/03 13:29:50;;;;;;;2.58;2.38;;;;;;;;;;5081097;28;20080;-70
2022/06/03 13:32:35;;;;;;;5.32;3.08;;;;;;;;;;5079058;28;20040;-69
2022/06/03 13:35:19;;;;;;;2.60;2.40;;;;;;;;;;5061044;28;20048;-69
2022/06/03 13:37:49;;;;;;;5.30;2.45;;;;;;;;;;5079765;28;20388;-68
2022/06/03 13:40:24;;;;;;;3.63;2.33;;;;;;;;;;5081086;28;20813;-69
2022/06/03 13:43:03;;;;;;;4.72;2.65;;;;;;;;;;5079489;28;20075;-69
2022/06/03 13:45:55;;;;;;;3.78;2.63;;;;;;;;;;5079627;28;20032;-69
2022/06/03 13:48:26;;;;;;;3.45;2.45;;;;;;;;;;5080690;28;20028;-69
2022/06/03 13:50:52;;;;;;;;;;;;;;;;;;5080910;28;20035;-67
2022/06/03 13:53:33;;;;;;;3.00;2.50;;;;;;;;;;5078201;28;19916;-69
2022/06/03 13:56:08;;;;;;;3.45;2.60;;;;;;;;;;5080301;28;20063;-71
2022/06/03 13:58:37;;;;;;;7.97;2.60;;;;;;;;;;5062893;28;20093;-70
2022/06/03 14:01:31;;;;;;;4.13;2.42;;;;;;;;;;5079734;28;20051;-69
2022/06/03 14:04:21;;;;;;;6.93;2.58;;;;;;;;;;5069230;28;20052;-69
2022/06/03 14:06:59;;;;;;;2.80;2.58;;;;;;;;;;5056901;28;20467;-69
2022/06/03 14:09:36;;;;;;;7.63;2.60;;;;;;;;;;5080968;28;20114;-70
2022/06/03 14:12:07;;;;;;;2.53;2.33;;;;;;;;;;5080193;28;20151;-69
2022/06/03 14:15:04;;;;;;;3.15;2.60;;;;;;;;;;5078826;28;20185;-71
2022/06/03 14:17:33;;;;;;;3.85;2.30;;;;;;;;;;5080969;28;20409;-70
2022/06/03 14:20:07;;;;;;;3.00;2.40;;;;;;;;;;5080892;28;20036;-71
2022/06/03 14:23:07;;;;;;;3.30;2.30;;;;;;;;;;5080991;28;20046;-69
2022/06/03 14:25:38;;;;;;;3.53;2.53;;;;;;;;;;5080255;28;20051;-70
2022/06/03 14:28:14;;;;;;;;;;;;;;;;;;5081429;28;20046;-70
2022/06/03 14:30:59;;;;;;;3.50;2.20;;;;;;;;;;5076871;28;20386;-70
2022/06/03 14:33:27;;;;;;;4.53;2.15;;;;;;;;;;5077301;28;20040;-71
2022/06/03 14:36:03;;;;;;;4.00;2.40;;;;;;;;;;5077346;28;20055;-70
2022/06/03 14:38:40;;;;;;;5.43;2.20;;;;;;;;;;5077239;28;20075;-67
2022/06/03 14:41:10;;;;;;;2.67;2.25;;;;;;;;;;5077097;28;20040;-70
2022/06/03 14:43:36;;;;;;;5.68;2.25;;;;;;;;;;5077335;28;20036;-70
2022/06/03 14:46:11;;;;;;;3.28;2.45;;;;;;;;;;5076927;28;20034;-70
2022/06/03 14:48:41;;;;;;;4.00;2.10;;;;;;;;;;5078397;28;20089;-68
2022/06/03 14:51:22;;;;;;;4.15;2.40;;;;;;;;;;5078465;28;20118;-69
2022/06/03 14:53:53;;;;;;;3.08;2.10;;;;;;;;;;5079677;28;20028;-68
2022/06/03 14:56:29;;;;;;;2.40;2.20;;;;;;;;;;5080028;28;20032;-70
2022/06/03 14:58:57;;;;;;;7.35;2.40;;;;;;;;;;5075669;28;20844;-70
2022/06/03 15:01:40;;;;;;;3.80;2.30;;;;;;;;;;5072932;28;20024;-69
2022/06/03 15:04:09;;;;;;;2.60;2.38;;;;;;;;;;5077692;28;20552;-69
2022/06/03 15:06:51;;;;;;;3.67;2.28;;;;;;;;;;5078274;28;21113;-69
2022/06/03 15:09:26;;;;;;;2.72;2.47;;;;;;;;;;5077328;28;20028;-68
2022/06/03 15:11:57;;;;;;;5.15;2.40;;;;;;;;;;5077585;28;20465;-69
2022/06/03 15:14:24;;;;;;;2.55;2.35;;;;;;;;;;5076994;28;20066;-68
2022/06/03 15:16:59;;;;;;;3.45;2.80;;;;;;;;;;5078125;28;20035;-70
2022/06/03 15:19:44;;;;;;;5.43;2.47;;;;;;;;;;5080598;28;20098;-69
2022/06/03 15:22:31;;;;;;;4.03;2.42;;;;;;;;;;5080277;28;20123;-68
2022/06/03 15:25:01;;;;;;;2.70;2.40;;;;;;;;;;5081421;28;20043;-69
2022/06/03 15:27:46;;;;;;;5.93;2.72;;;;;;;;;;5081115;28;20127;-69
2022/06/03 15:30:19;;;;;;;6.00;2.33;;;;;;;;;;5081483;28;20040;-67
2022/06/03 15:32:46;;;;;;;3.55;2.60;;;;;;;;;;5080603;28;20115;-70
2022/06/03 15:35:24;;;;;;;2.95;2.53;;;;;;;;;;5081521;28;20194;-69
2022/06/03 15:37:50;;;;;;;6.60;2.53;;;;;;;;;;5082087;28;20035;-70
2022/06/03 15:40:30;;;;;;;3.97;2.30;;;;;;;;;;5080843;28;20039;-70
2022/06/03 15:42:57;;;;;;;6.43;2.63;;;;;;;;;;5080599;28;20096;-70
2022/06/03 15:45:40;;;;;;;6.25;3.05;;;;;;;;;;5080388;28;20054;-69
2022/06/03 15:48:18;;;;;;;7.07;2.63;;;;;;;;;;5081360;28;20497;-70
2022/06/03 15:51:07;;;;;;;3.25;2.45;;;;;;;;;;5080875;28;20131;-67
2022/06/03 15:53:46;;;;;;;8.25;2.53;;;;;;;;;;5078985;28;20116;-67
2022/06/03 15:56:33;;;;;;;10.65;2.60;;;;;;;;;;5080731;28;20051;-67
2022/06/03 15:59:10;;;;;;;5.32;2.53;;;;;;;;;;5080994;28;20063;-68
2022/06/03 16:01:59;;;;;;;10.45;3.13;;;;;;;;;;5079482;28;20036;-70
2022/06/03 16:04:53;;;;;;;4.13;2.60;;;;;;;;;;5079069;28;20438;-69
2022/06/03 16:07:38;;;;;;;4.53;2.70;;;;;;;;;;5079906;28;20028;-70
2022/06/03 16:10:11;;;;;;;9.35;3.25;;;;;;;;;;5080077;28;20063;-69
2022/06/03 16:13:05;;;;;;;8.43;3.17;;;;;;;;;;5080742;28;20028;-69
2022/06/03 16:15:46;;;;;;;4.72;2.70;;;;;;;;;;5079799;28;20036;-70
2022/06/03 16:18:48;;;;;;;4.10;2.63;;;;;;;;;;5080193;28;20147;-69
2022/06/03 16:21:23;;;;;;;8.23;2.58;;;;;;;;;;5079763;28;20046;-67
2022/06/03 16:24:10;;;;;;;10.18;2.92;;;;;;;;;;5080242;28;20120;-69
2022/06/03 16:26:41;;;;;;;5.80;2.90;;;;;;;;;;5080496;28;20088;-70
2022/06/03 16:29:35;;;;;;;4.55;2.90;;;;;;;;;;5080612;28;20028;-68
2022/06/03 16:32:26;;;;;;;3.95;3.05;;;;;;;;;;5080548;28;20032;-70
2022/06/03 16:35:19;;;;;;;3.90;2.50;;;;;;;;;;5077733;28;20134;-68